createdAt,value
2018-04-14T06:40:27.556Z,82.79
2018-04-14T06:40:53.400Z,82.22
2018-04-14T06:41:53.404Z,82.41
2018-04-14T06:42:53.408Z,84.27
2018-04-14T06:43:53.419Z,80.92
2018-04-14T06:46:30.662Z,82.64
2018-04-14T06:47:24.977Z,80.63
2018-04-14T06:48:24.979Z,81.05
2018-04-14T06:49:24.984Z,81.15
2018-04-14T06:51:56.704Z,79.58
2018-04-14T06:52:56.565Z,80.50
2018-04-14T06:53:56.554Z,81.30
2018-04-14T06:54:56.557Z,80.16
2018-04-14T06:56:01.761Z,81.34
2018-04-14T06:56:57.393Z,79.00
2018-04-14T06:57:56.567Z,80.87
2018-04-14T06:58:56.568Z,79.18
2018-04-14T06:59:56.575Z,78.38
2018-04-14T07:01:07.260Z,80.43
2018-04-14T07:01:56.581Z,78.55
2018-04-14T07:02:56.580Z,78.45
2018-04-14T07:03:56.593Z,76.57
2018-04-14T07:04:56.641Z,77.09
2018-04-14T07:15:06.531Z,75.10
2018-04-14T12:58:50.502Z,54.14
2018-04-14T12:59:22.031Z,54.43
2018-04-14T13:00:22.038Z,53.96
2018-04-14T13:26:07.021Z,52.95
2018-04-14T13:26:48.983Z,52.08
2018-04-14T13:27:48.952Z,52.44
2018-04-14T13:28:48.957Z,51.24
2018-04-14T13:37:48.136Z,50.88
2018-04-14T13:38:27.097Z,49.89
2018-04-14T13:39:27.106Z,50.73
2018-04-14T13:40:51.204Z,52.54
2018-04-14T13:41:27.125Z,54.78
2018-04-14T13:42:27.133Z,54.20
2018-04-14T13:43:27.654Z,55.00
2018-04-14T13:44:27.148Z,54.22
2018-04-14T13:51:45.726Z,46.20
2018-04-14T13:52:35.100Z,49.24
2018-04-14T13:53:35.110Z,51.58
2018-04-14T14:14:38.655Z,47.72
2018-04-14T14:15:27.478Z,48.76
2018-04-14T14:16:26.561Z,49.12
2018-04-14T14:17:26.571Z,50.35
2018-04-14T14:18:26.583Z,51.60
2018-04-14T14:19:26.591Z,50.90
2018-04-14T14:33:02.383Z,48.97
2018-04-14T14:33:39.958Z,47.63
2018-04-14T14:34:39.779Z,48.81
2018-04-14T14:35:39.831Z,48.44
2018-04-14T14:36:39.800Z,46.44
2018-04-14T14:37:39.817Z,47.72
2018-04-14T14:38:39.817Z,48.97
2018-04-14T14:39:50.381Z,45.89
2018-04-14T14:40:39.837Z,46.37
2018-04-14T14:41:39.847Z,47.72
2018-04-14T14:42:39.888Z,46.34
2018-04-14T14:43:39.865Z,45.67
2018-04-14T14:52:52.212Z,49.43
2018-04-14T14:53:18.090Z,47.82
2018-04-14T14:54:39.154Z,47.60
2018-04-14T14:55:18.115Z,48.97
2018-04-14T14:56:18.134Z,48.57
2018-04-14T14:57:18.181Z,47.97
2018-04-14T14:58:18.148Z,48.93
2018-04-14T14:59:18.160Z,48.93
2018-04-14T15:06:25.354Z,52.01
2018-04-14T15:07:25.157Z,50.11
2018-04-14T15:08:25.172Z,49.73
2018-04-14T15:09:25.241Z,48.79
2018-04-14T15:10:25.189Z,47.05
2018-04-14T15:11:25.241Z,46.97
2018-04-14T15:12:25.207Z,47.45
2018-04-14T15:13:25.218Z,46.28
2018-04-14T15:14:25.272Z,48.21
2018-04-14T15:15:25.234Z,48.97
2018-04-14T15:16:25.243Z,49.55
2018-04-14T15:17:26.017Z,50.81
2018-04-14T15:18:25.259Z,50.40
2018-04-14T15:22:34.603Z,50.57
2018-04-14T15:29:58.151Z,53.23
2018-04-14T15:30:35.535Z,53.65
2018-04-14T15:31:35.541Z,53.62
2018-04-14T15:32:35.548Z,53.72
2018-04-14T15:35:29.290Z,56.48
2018-04-14T15:36:07.211Z,56.00
2018-04-14T15:37:07.215Z,56.48
2018-04-14T15:38:07.225Z,57.25
2018-04-14T15:42:31.644Z,59.05
2018-04-14T15:43:10.531Z,59.34
2018-04-14T15:44:10.538Z,60.11
2018-04-14T15:45:10.539Z,60.21
2018-04-14T15:46:10.552Z,60.88
2018-04-14T15:47:10.557Z,60.59
2018-04-14T15:48:15.633Z,58.73
2018-04-14T15:49:11.553Z,59.12
2018-04-14T15:50:11.508Z,58.54
2018-04-14T15:51:10.578Z,57.48
2018-04-14T15:52:10.591Z,57.39
2018-04-14T15:54:42.294Z,59.50
2018-04-14T15:55:42.248Z,59.22
2018-04-14T15:56:42.262Z,60.27
2018-04-14T15:57:42.258Z,59.34
2018-04-14T15:58:42.310Z,57.22
2018-04-14T15:59:42.274Z,56.26
2018-04-14T16:00:42.285Z,55.78
2018-04-14T16:01:42.287Z,57.25
2018-04-14T16:02:42.855Z,55.90
2018-04-14T16:03:44.725Z,54.49
2018-04-14T16:04:42.306Z,53.81
2018-04-14T16:05:42.303Z,52.75
2018-04-14T16:06:42.322Z,53.94
2018-04-14T16:10:58.741Z,50.85
2018-04-14T16:11:45.633Z,50.85
2018-04-14T16:12:45.680Z,52.87
2018-04-14T16:13:45.647Z,52.69
2018-04-14T16:14:45.649Z,52.78
2018-04-14T16:15:45.663Z,50.88
2018-04-14T16:16:45.666Z,51.36
2018-04-14T16:17:50.738Z,52.61
2018-04-14T16:18:45.681Z,50.88
2018-04-14T16:19:45.687Z,51.17
2018-04-14T16:20:45.695Z,51.36
2018-04-14T16:21:45.707Z,50.01
2018-04-14T16:22:45.763Z,51.34
2018-04-14T16:23:45.723Z,51.07
2018-04-14T16:24:45.730Z,51.14
2018-04-14T16:25:45.740Z,52.59
2018-04-14T16:26:45.748Z,49.22
2018-04-14T16:27:46.248Z,49.51
2018-04-14T16:28:45.762Z,50.27
2018-04-14T16:29:45.772Z,49.60
2018-04-14T16:30:45.857Z,49.48
2018-04-14T16:31:45.790Z,50.25
2018-04-14T16:32:45.838Z,51.79
2018-04-14T16:33:45.811Z,52.95
2018-04-14T16:34:45.811Z,54.20
2018-04-14T16:35:45.831Z,55.52
2018-04-14T16:36:45.830Z,56.03
2018-04-14T16:37:45.919Z,55.81
2018-04-14T16:38:45.843Z,56.99
2018-04-14T16:39:45.858Z,56.77
2018-04-14T16:40:45.887Z,56.67
2018-04-14T16:41:45.871Z,55.33
2018-04-14T16:42:45.881Z,54.08
2018-04-14T16:43:45.962Z,53.88
2018-04-14T16:44:45.900Z,54.75
2018-04-14T16:45:45.903Z,53.28
2018-04-14T16:46:45.914Z,53.76
2018-04-14T16:47:45.922Z,51.91
2018-04-14T16:48:46.015Z,53.45
2018-04-14T16:49:45.933Z,54.02
2018-04-14T16:50:45.944Z,52.10
2018-04-14T16:51:45.956Z,53.54
2018-04-14T16:52:45.965Z,53.83
2018-04-14T16:54:00.249Z,52.68
2018-04-14T16:54:45.976Z,52.97
2018-04-14T16:55:45.984Z,52.29
2018-04-14T16:56:45.990Z,52.68
2018-04-14T16:57:46.002Z,56.04
2018-04-14T16:58:46.054Z,58.06
2018-04-14T16:59:46.884Z,59.19
2018-04-14T17:00:46.020Z,59.22
2018-04-14T17:01:46.027Z,59.19
2018-04-14T17:02:46.199Z,58.51
2018-04-14T17:03:46.045Z,60.05
2018-04-14T17:04:46.053Z,61.36
2018-04-14T17:05:46.055Z,61.75
2018-04-14T17:06:46.071Z,62.23
2018-04-14T17:07:46.067Z,62.23
2018-04-14T17:08:46.119Z,61.27
2018-04-14T17:09:46.079Z,61.24
2018-04-14T17:10:46.088Z,61.05
2018-04-14T17:11:46.092Z,63.35
2018-04-14T17:12:46.100Z,59.80
2018-04-14T17:13:47.755Z,59.41
2018-04-14T17:14:46.109Z,59.99
2018-04-14T17:15:46.120Z,58.91
2018-04-14T17:16:46.119Z,60.25
2018-04-14T17:17:46.129Z,60.53
2018-04-14T17:18:47.774Z,61.11
2018-04-14T17:19:46.134Z,61.21
2018-04-14T17:20:46.140Z,60.15
2018-04-14T17:21:46.139Z,60.72
2018-04-14T17:22:46.151Z,61.11
2018-04-14T17:23:46.771Z,58.91
2018-04-14T17:24:46.161Z,60.05
2018-04-14T17:25:46.165Z,60.89
2018-04-14T17:26:46.168Z,64.34
2018-04-14T17:27:46.174Z,63.76
2018-04-14T17:28:46.226Z,64.34
2018-04-14T17:29:46.180Z,65.84
2018-04-14T17:30:46.518Z,65.65
2018-04-14T17:31:46.190Z,66.99
2018-04-14T17:32:46.201Z,67.76
2018-04-14T17:33:51.262Z,67.72
2018-04-14T17:34:46.207Z,69.07
2018-04-14T17:35:46.211Z,69.54
2018-04-14T17:36:46.215Z,69.93
2018-04-14T17:37:46.277Z,70.31
2018-04-14T17:38:46.223Z,71.42
2018-04-14T17:39:46.229Z,70.76
2018-04-14T17:40:46.231Z,70.85
2018-04-14T17:41:46.232Z,72.00
2018-04-14T17:42:46.244Z,71.33
2018-04-14T17:43:46.294Z,71.33
2018-04-14T17:44:46.246Z,71.77
2018-04-14T17:45:46.249Z,72.00
2018-04-14T17:46:46.253Z,72.19
2018-04-14T17:47:47.301Z,72.16
2018-04-14T17:48:46.264Z,73.50
2018-04-14T17:49:46.262Z,73.69
2018-04-14T17:50:46.378Z,74.16
2018-04-14T17:51:46.273Z,74.90
2018-04-14T17:52:46.347Z,74.61
2018-04-14T17:53:46.275Z,75.47
2018-04-14T17:54:46.275Z,75.27
2018-04-14T17:55:46.832Z,76.52
2018-04-14T17:56:46.292Z,77.00
2018-04-14T17:58:07.767Z,77.15
2018-04-14T17:58:46.300Z,77.15
2018-04-14T17:59:46.303Z,77.25
2018-04-14T18:00:46.301Z,77.15
2018-04-14T18:01:46.302Z,78.11
2018-04-14T18:02:46.763Z,77.25
2018-04-14T18:03:46.307Z,78.45
2018-04-14T18:04:46.317Z,79.12
2018-04-14T18:05:46.311Z,77.69
2018-04-14T18:06:46.312Z,79.22
2018-04-14T18:07:46.377Z,79.22
2018-04-14T18:08:46.319Z,78.83
2018-04-14T18:09:46.321Z,79.12
2018-04-14T18:10:47.031Z,79.02
2018-04-14T18:11:46.324Z,79.02
2018-04-14T18:12:46.413Z,78.93
2018-04-14T18:13:46.330Z,78.93
2018-04-14T18:14:46.333Z,79.12
2018-04-14T18:15:46.334Z,79.75
2018-04-14T18:16:46.334Z,79.46
2018-04-14T18:17:46.482Z,80.04
2018-04-14T18:18:46.336Z,80.41
2018-04-14T18:19:46.342Z,80.41
2018-04-14T18:20:46.343Z,80.61
2018-04-14T18:21:46.344Z,80.22
2018-04-14T18:22:47.313Z,79.94
2018-04-14T18:23:46.352Z,79.94
2018-04-14T18:24:46.351Z,79.65
2018-04-14T18:25:46.350Z,79.56
2018-04-14T18:26:46.351Z,79.36
2018-04-14T18:27:46.409Z,78.41
2018-04-14T18:28:46.356Z,78.60
2018-04-14T18:29:46.354Z,80.80
2018-04-14T18:30:46.552Z,80.61
2018-04-14T18:31:46.359Z,80.99
2018-04-14T18:32:46.440Z,80.76
2018-04-14T18:33:46.362Z,80.47
2018-04-14T18:34:46.362Z,80.85
2018-04-14T18:35:46.361Z,82.19
2018-04-14T18:36:46.368Z,81.33
2018-04-14T18:37:46.422Z,82.09
2018-04-14T18:38:46.368Z,80.95
2018-04-14T18:39:46.368Z,81.62
2018-04-14T18:40:46.374Z,81.24
2018-04-14T18:41:46.373Z,81.14
2018-04-14T18:42:46.785Z,81.24
2018-04-14T18:43:46.373Z,80.95
2018-04-14T18:44:46.377Z,80.76
2018-04-14T18:45:46.377Z,81.24
2018-04-14T18:46:46.377Z,81.14
2018-04-14T18:47:49.899Z,81.24
2018-04-14T18:48:46.383Z,80.85
2018-04-14T18:49:46.382Z,81.62
2018-04-14T18:50:46.379Z,82.00
2018-04-14T18:51:46.386Z,82.19
2018-04-14T18:52:57.273Z,81.86
2018-04-14T18:53:46.934Z,81.96
2018-04-14T18:54:46.396Z,81.96
2018-04-14T18:55:46.388Z,81.77
2018-04-14T18:56:46.391Z,81.67
2018-04-14T18:57:46.556Z,81.96
2018-04-14T18:58:46.391Z,82.06
2018-04-14T18:59:46.391Z,82.06
2018-04-14T19:00:46.391Z,82.82
2018-04-14T19:01:46.402Z,83.67
2018-04-14T19:02:46.392Z,85.64
2018-04-14T19:03:46.769Z,86.69
2018-04-14T19:04:47.253Z,87.45
2018-04-14T19:05:47.142Z,88.02
2018-04-14T19:06:46.401Z,87.79
2018-04-14T19:07:46.448Z,89.31
2018-04-14T19:08:46.397Z,89.69
2018-04-14T19:09:46.400Z,89.69
2018-04-14T19:10:46.400Z,89.50
2018-04-14T19:11:46.401Z,89.22
2018-04-14T19:13:00.773Z,88.74
2018-04-14T19:13:46.400Z,87.02
2018-04-14T19:14:46.407Z,86.59
2018-04-14T19:15:46.402Z,85.73
2018-04-14T19:16:46.406Z,85.25
2018-04-14T19:17:46.453Z,84.40
2018-04-14T19:18:46.406Z,83.01
2018-04-14T19:19:46.404Z,82.82
2018-04-14T19:20:46.406Z,81.67
2018-04-14T19:21:46.409Z,80.91
2018-04-14T19:22:46.459Z,80.76
2018-04-14T19:23:46.408Z,80.72
2018-04-14T19:24:46.408Z,80.53
2018-04-14T19:25:46.410Z,79.52
2018-04-14T19:26:46.408Z,79.90
2018-04-14T19:27:46.780Z,79.80
2018-04-14T19:28:46.408Z,79.90
2018-04-14T19:29:46.408Z,79.90
2018-04-14T19:30:46.412Z,80.24
2018-04-14T19:31:46.413Z,80.72
2018-04-14T19:32:46.467Z,80.95
2018-04-14T19:33:46.415Z,79.33
2018-04-14T19:34:46.425Z,79.61
2018-04-14T19:35:46.417Z,79.33
2018-04-14T19:36:46.414Z,79.23
2018-04-14T19:37:46.668Z,78.94
2018-04-14T19:38:46.416Z,78.09
2018-04-14T19:39:46.418Z,77.13
2018-04-14T19:40:46.418Z,78.03
2018-04-14T19:41:47.212Z,77.08
2018-04-14T19:42:46.422Z,75.45
2018-04-14T19:43:46.428Z,76.06
2018-04-14T19:44:46.420Z,75.20
2018-04-14T19:45:46.418Z,75.59
2018-04-14T19:46:54.271Z,77.17
2018-04-14T19:47:46.422Z,76.69
2018-04-14T19:48:46.435Z,77.08
2018-04-14T19:49:46.443Z,77.89
2018-04-14T19:50:46.424Z,77.61
2018-04-14T19:51:46.831Z,77.51
2018-04-14T19:52:46.424Z,78.37
2018-04-14T19:53:46.424Z,78.94
2018-04-14T19:54:46.426Z,79.19
2018-04-14T19:55:46.425Z,79.86
2018-04-14T19:56:46.547Z,80.15
2018-04-14T19:57:46.431Z,79.00
2018-04-14T19:58:46.429Z,79.10
2018-04-14T19:59:46.965Z,79.48
2018-04-14T20:00:46.445Z,80.33
2018-04-14T20:01:46.489Z,81.20
2018-04-14T20:02:46.830Z,81.48
2018-04-14T20:03:46.431Z,81.10
2018-04-14T20:04:46.434Z,81.58
2018-04-14T20:05:46.437Z,81.10
2018-04-14T20:06:46.810Z,82.59
2018-04-14T20:07:46.439Z,84.78
2018-04-14T20:08:46.434Z,84.59
2018-04-14T20:09:46.438Z,84.78
2018-04-14T20:10:46.438Z,85.12
2018-04-14T20:11:46.777Z,85.97
2018-04-14T20:12:46.441Z,85.21
2018-04-14T20:13:46.442Z,85.60
2018-04-14T20:14:46.438Z,87.31
2018-04-14T20:15:46.443Z,89.60
2018-04-14T20:16:51.779Z,89.03
2018-04-14T20:17:46.445Z,88.89
2018-04-14T20:18:46.444Z,89.26
2018-04-14T20:19:46.442Z,89.46
2018-04-14T20:20:46.442Z,90.22
2018-04-14T20:21:46.531Z,89.84
2018-04-14T20:22:46.443Z,90.41
2018-04-14T20:23:46.451Z,89.55
2018-04-14T20:24:46.438Z,89.65
2018-04-14T20:25:46.448Z,89.65
2018-04-14T20:26:46.517Z,89.17
2018-04-14T20:27:46.446Z,89.36
2018-04-14T20:28:46.443Z,89.94
2018-04-14T20:29:46.449Z,88.98
2018-04-14T20:30:46.506Z,89.07
2018-04-14T20:31:46.532Z,88.70
2018-04-14T20:32:46.448Z,89.94
2018-04-14T20:33:46.449Z,90.12
2018-04-14T20:34:46.449Z,90.22
2018-04-14T20:35:46.446Z,90.22
2018-04-14T20:36:46.505Z,89.94
2018-04-14T20:37:46.452Z,89.55
2018-04-14T20:38:46.437Z,91.08
2018-04-14T20:39:46.445Z,90.50
2018-04-14T20:40:46.446Z,90.03
2018-04-14T20:41:46.445Z,90.79
2018-04-14T20:42:47.316Z,90.50
2018-04-14T20:43:46.634Z,90.50
2018-04-14T20:44:46.445Z,91.55
2018-04-14T20:45:46.445Z,91.51
2018-04-14T20:46:46.496Z,91.89
2018-04-14T20:47:48.290Z,91.70
2018-04-14T20:48:47.347Z,91.31
2018-04-14T20:49:46.446Z,92.18
2018-04-14T20:50:46.445Z,91.99
2018-04-14T20:51:46.449Z,92.98
2018-04-14T20:52:46.533Z,92.60
2018-04-14T20:53:46.442Z,93.08
2018-04-14T20:54:46.451Z,92.41
2018-04-14T20:55:46.442Z,93.08
2018-04-14T20:56:46.448Z,93.17
2018-04-14T20:57:46.507Z,92.50
2018-04-14T20:58:46.448Z,93.27
2018-04-14T20:59:46.440Z,92.27
2018-04-14T21:00:46.444Z,93.08
2018-04-14T21:01:46.435Z,92.41
2018-04-14T21:02:46.447Z,92.98
2018-04-14T21:04:12.783Z,92.98
2018-04-14T21:04:46.445Z,93.41
2018-04-14T21:05:46.439Z,93.08
2018-04-14T21:06:46.440Z,92.65
2018-04-14T21:07:46.441Z,92.55
2018-04-14T21:08:47.277Z,92.84
2018-04-14T21:09:46.441Z,93.03
2018-04-14T21:10:46.440Z,92.94
2018-04-14T21:11:46.435Z,92.27
2018-04-14T21:12:46.438Z,92.22
2018-04-14T21:13:46.480Z,92.08
2018-04-14T21:14:46.437Z,92.08
2018-04-14T21:15:46.436Z,92.22
2018-04-14T21:16:46.434Z,92.27
2018-04-14T21:17:46.436Z,92.69
2018-04-14T21:18:46.771Z,92.65
2018-04-14T21:19:46.470Z,91.79
2018-04-14T21:20:46.438Z,90.79
2018-04-14T21:21:46.431Z,91.94
2018-04-14T21:22:46.434Z,90.89
2018-04-14T21:23:46.560Z,90.89
2018-04-14T21:24:46.430Z,90.89
2018-04-14T21:25:46.434Z,91.74
2018-04-14T21:26:46.451Z,91.70
2018-04-14T21:27:46.429Z,91.60
2018-04-14T21:28:46.433Z,91.79
2018-04-14T21:29:46.497Z,91.31
2018-04-14T21:30:46.433Z,91.41
2018-04-14T21:31:46.430Z,91.79
2018-04-14T21:32:46.430Z,92.27
2018-04-14T21:33:46.428Z,91.99
2018-04-14T21:34:49.782Z,92.18
2018-04-14T21:35:46.428Z,92.55
2018-04-14T21:36:46.424Z,93.13
2018-04-14T21:37:46.430Z,92.94
2018-04-14T21:38:46.427Z,93.03
2018-04-14T21:39:46.427Z,93.70
2018-04-14T21:40:46.479Z,93.41
2018-04-14T21:41:46.423Z,94.17
2018-04-14T21:42:46.424Z,93.89
2018-04-14T21:43:46.421Z,93.13
2018-04-14T21:44:46.422Z,93.03
2018-04-14T21:45:46.778Z,93.03
2018-04-14T21:46:46.420Z,93.32
2018-04-14T21:47:46.416Z,93.37
2018-04-14T21:48:46.417Z,93.55
2018-04-14T21:49:46.421Z,92.84
2018-04-14T21:50:46.773Z,93.32
2018-04-14T21:51:46.418Z,93.51
2018-04-14T21:52:46.415Z,93.79
2018-04-14T21:53:46.415Z,93.94
2018-04-14T21:54:46.421Z,93.65
2018-04-14T21:55:46.463Z,94.60
2018-04-14T21:56:46.417Z,94.89
2018-04-14T21:57:46.411Z,94.42
2018-04-14T21:58:46.410Z,95.65
2018-04-14T21:59:46.413Z,95.84
2018-04-14T22:00:47.277Z,96.03
2018-04-14T22:01:46.409Z,96.46
2018-04-14T22:02:46.411Z,96.55
2018-04-14T22:03:46.405Z,96.84
2018-04-14T22:04:46.405Z,96.84
2018-04-14T22:05:57.285Z,96.94
2018-04-14T22:06:46.405Z,96.55
2018-04-14T22:07:46.405Z,97.03
2018-04-14T22:08:47.163Z,96.84
2018-04-14T22:09:46.402Z,97.03
2018-04-14T22:10:46.773Z,97.03
2018-04-14T22:11:46.399Z,96.46
2018-04-14T22:12:46.469Z,97.03
2018-04-14T22:13:46.399Z,97.88
2018-04-14T22:14:46.399Z,98.65
2018-04-14T22:16:04.784Z,98.69
2018-04-14T22:16:46.394Z,98.74
2018-04-14T22:17:46.396Z,98.88
2018-04-14T22:18:46.393Z,98.65
2018-04-14T22:19:46.388Z,98.65
2018-04-14T22:20:46.392Z,98.83
2018-04-14T22:21:48.288Z,99.31
2018-04-14T22:22:46.392Z,99.31
2018-04-14T22:23:46.388Z,99.02
2018-04-14T22:24:46.388Z,98.46
2018-04-14T22:25:47.280Z,99.02
2018-04-14T22:26:46.394Z,98.55
2018-04-14T22:27:46.832Z,99.22
2018-04-14T22:28:46.387Z,98.74
2018-04-14T22:29:46.383Z,98.83
2018-04-14T22:31:12.844Z,98.12
2018-04-14T22:31:46.381Z,98.74
2018-04-14T22:32:46.379Z,99.02
2018-04-14T22:33:46.377Z,98.36
2018-04-14T22:34:46.374Z,98.27
2018-04-14T22:35:46.374Z,98.27
2018-04-14T22:37:08.285Z,98.93
2018-04-14T22:37:46.374Z,98.97
2018-04-14T22:38:46.370Z,98.88
2018-04-14T22:39:46.373Z,99.26
2018-04-14T22:40:46.376Z,98.60
2018-04-14T22:41:46.776Z,99.64
2018-04-14T22:42:46.365Z,99.16
2018-04-14T22:43:46.366Z,99.74
2018-04-14T22:44:46.362Z,99.55
2018-04-14T22:45:46.786Z,99.55
2018-04-14T22:46:46.358Z,99.93
2018-04-14T22:47:46.358Z,99.07
2018-04-14T22:48:46.358Z,99.16
2018-04-14T22:49:46.355Z,98.97
2018-04-14T22:51:07.785Z,99.26
2018-04-14T22:51:46.351Z,99.55
2018-04-14T22:52:46.789Z,99.99
2018-04-14T22:53:46.351Z,99.16
2018-04-14T22:54:46.346Z,99.22
2018-04-14T22:57:24.603Z,99.50
2018-04-14T22:58:17.967Z,99.07
2018-04-14T22:59:17.962Z,99.16
2018-04-14T23:00:18.004Z,99.16
2018-04-14T23:01:17.961Z,99.84
2018-04-14T23:02:18.772Z,99.93
2018-04-14T23:03:17.953Z,99.55
2018-04-14T23:04:17.957Z,99.84
2018-04-14T23:05:18.615Z,99.93
2018-04-14T23:06:17.952Z,99.99
2018-04-14T23:07:17.953Z,99.99
2018-04-14T23:08:17.953Z,99.99
2018-04-14T23:09:17.958Z,99.99
2018-04-14T23:10:32.102Z,99.99
2018-04-14T23:11:17.944Z,99.99
2018-04-14T23:12:17.953Z,99.99
2018-04-14T23:13:17.942Z,99.99
2018-04-14T23:14:17.940Z,99.99
2018-04-14T23:15:19.609Z,99.99
2018-04-14T23:16:17.933Z,99.99
2018-04-14T23:17:17.941Z,99.99
2018-04-14T23:18:17.935Z,99.99
2018-04-14T23:19:17.985Z,99.99
2018-04-14T23:20:18.600Z,99.99
2018-04-14T23:21:17.929Z,99.99
2018-04-14T23:22:17.930Z,99.99
2018-04-14T23:23:17.929Z,99.93
2018-04-14T23:24:17.926Z,99.99
2018-04-14T23:25:57.101Z,99.64
2018-04-14T23:26:17.913Z,99.93
2018-04-14T23:27:17.921Z,99.99
2018-04-14T23:28:17.917Z,99.99
2018-04-14T23:29:17.917Z,99.99
2018-04-14T23:31:49.565Z,99.99
2018-04-14T23:32:49.521Z,99.99
2018-04-14T23:33:50.032Z,99.99
2018-04-14T23:34:49.517Z,99.99
2018-04-14T23:35:49.560Z,99.99
2018-04-14T23:36:49.508Z,99.99
2018-04-14T23:37:49.505Z,99.99
2018-04-14T23:38:49.504Z,99.99
2018-04-14T23:39:49.505Z,99.99
2018-04-14T23:40:50.165Z,99.99
2018-04-14T23:41:49.502Z,99.99
2018-04-14T23:42:50.096Z,99.99
2018-04-14T23:43:49.498Z,99.99
2018-04-14T23:44:49.497Z,99.99
2018-04-14T23:45:49.493Z,99.99
2018-04-14T23:47:12.185Z,99.99
2018-04-14T23:47:49.493Z,99.99
2018-04-14T23:48:49.497Z,99.99
2018-04-14T23:49:49.489Z,99.99
2018-04-14T23:50:49.485Z,99.99
2018-04-14T23:51:54.730Z,99.99
2018-04-14T23:52:49.486Z,99.99
2018-04-14T23:53:49.485Z,99.99
2018-04-14T23:54:49.491Z,99.99
2018-04-14T23:55:49.478Z,99.99
2018-04-14T23:58:21.727Z,99.99
2018-04-14T23:59:21.121Z,99.99
